sensor_id;sensor_type;location;lat;lon;timestamp;pressure;altitude;pressure_sealevel;temperature;humidity
5380;BME280;2713;42.680;23.310;2022-11-04T00:01:37;95216.13;;;15.14;57.35
5380;BME280;2713;42.680;23.310;2022-11-04T00:04:05;95210.31;;;14.99;57.31
5380;BME280;2713;42.680;23.310;2022-11-04T00:06:34;95213.50;;;15.14;57.55
5380;BME280;2713;42.680;23.310;2022-11-04T00:09:01;95212.72;;;15.13;57.31
5380;BME280;2713;42.680;23.310;2022-11-04T00:11:28;95207.09;;;15.03;57.36
5380;BME280;2713;42.680;23.310;2022-11-04T00:14:13;95211.13;;;14.99;58.13
5380;BME280;2713;42.680;23.310;2022-11-04T00:16:41;95214.75;;;14.92;57.83
5380;BME280;2713;42.680;23.310;2022-11-04T00:19:25;95211.53;;;15.03;57.76
5380;BME280;2713;42.680;23.310;2022-11-04T00:21:54;95217.75;;;15.08;57.33
5380;BME280;2713;42.680;23.310;2022-11-04T00:24:38;95208.53;;;14.86;57.70
5380;BME280;2713;42.680;23.310;2022-11-04T00:27:22;95207.72;;;14.73;58.10
5380;BME280;2713;42.680;23.310;2022-11-04T00:30:08;95213.13;;;14.64;58.37
5380;BME280;2713;42.680;23.310;2022-11-04T00:32:35;95207.31;;;14.69;58.80
5380;BME280;2713;42.680;23.310;2022-11-04T00:35:20;95205.47;;;14.76;58.65
5380;BME280;2713;42.680;23.310;2022-11-04T00:37:49;95204.69;;;14.82;58.40
5380;BME280;2713;42.680;23.310;2022-11-04T00:40:15;95198.66;;;14.55;58.82
5380;BME280;2713;42.680;23.310;2022-11-04T00:42:43;95197.25;;;14.73;57.95
5380;BME280;2713;42.680;23.310;2022-11-04T00:45:11;95200.66;;;14.73;58.33
5380;BME280;2713;42.680;23.310;2022-11-04T00:47:38;95201.84;;;14.64;58.63
5380;BME280;2713;42.680;23.310;2022-11-04T00:50:06;95200.66;;;14.73;58.17
5380;BME280;2713;42.680;23.310;2022-11-04T00:52:33;95187.78;;;14.71;58.14
5380;BME280;2713;42.680;23.310;2022-11-04T00:55:01;95190.97;;;14.80;58.01
5380;BME280;2713;42.680;23.310;2022-11-04T00:57:28;95186.97;;;14.84;57.98
5380;BME280;2713;42.680;23.310;2022-11-04T00:59:54;95182.94;;;14.62;57.86
5380;BME280;2713;42.680;23.310;2022-11-04T01:02:21;95181.34;;;14.54;58.55
5380;BME280;2713;42.680;23.310;2022-11-04T01:04:48;95186.34;;;14.56;58.29
5380;BME280;2713;42.680;23.310;2022-11-04T01:07:15;95181.72;;;14.38;59.10
5380;BME280;2713;42.680;23.310;2022-11-04T01:09:42;95173.00;;;14.18;59.74
5380;BME280;2713;42.680;23.310;2022-11-04T01:12:10;95181.47;;;14.27;59.50
5380;BME280;2713;42.680;23.310;2022-11-04T01:14:36;95172.66;;;14.34;59.45
5380;BME280;2713;42.680;23.310;2022-11-04T01:17:03;95171.41;;;14.23;59.83
5380;BME280;2713;42.680;23.310;2022-11-04T01:19:30;95165.41;;;14.36;59.51
5380;BME280;2713;42.680;23.310;2022-11-04T01:21:57;95161.19;;;14.42;58.76
5380;BME280;2713;42.680;23.310;2022-11-04T01:24:24;95161.22;;;14.48;58.79
5380;BME280;2713;42.680;23.310;2022-11-04T01:26:51;95160.41;;;14.48;58.81
5380;BME280;2713;42.680;23.310;2022-11-04T01:29:19;95164.81;;;14.34;58.85
5380;BME280;2713;42.680;23.310;2022-11-04T01:31:45;95154.66;;;14.05;59.29
5380;BME280;2713;42.680;23.310;2022-11-04T01:34:12;95154.09;;;14.16;59.44
5380;BME280;2713;42.680;23.310;2022-11-04T01:36:39;95157.72;;;14.28;59.07
5380;BME280;2713;42.680;23.310;2022-11-04T01:39:06;95155.47;;;13.99;59.95
5380;BME280;2713;42.680;23.310;2022-11-04T01:41:33;95161.69;;;13.98;60.05
5380;BME280;2713;42.680;23.310;2022-11-04T01:44:01;95149.88;;;14.15;59.33
5380;BME280;2713;42.680;23.310;2022-11-04T01:46:42;95155.91;;;14.15;59.27
5380;BME280;2713;42.680;23.310;2022-11-04T01:49:21;95151.06;;;13.99;59.55
5380;BME280;2713;42.680;23.310;2022-11-04T01:51:50;95146.78;;;13.85;60.30
5380;BME280;2713;42.680;23.310;2022-11-04T01:54:19;95149.38;;;13.79;60.22
5380;BME280;2713;42.680;23.310;2022-11-04T01:56:48;95150.16;;;13.66;60.70
5380;BME280;2713;42.680;23.310;2022-11-04T01:59:18;95152.78;;;13.66;60.58
5380;BME280;2713;42.680;23.310;2022-11-04T02:01:48;95158.63;;;13.75;60.70
5380;BME280;2713;42.680;23.310;2022-11-04T02:04:15;95151.75;;;13.67;61.30
5380;BME280;2713;42.680;23.310;2022-11-04T02:06:53;95142.56;;;13.91;60.17
5380;BME280;2713;42.680;23.310;2022-11-04T02:09:22;95140.59;;;14.06;59.91
5380;BME280;2713;42.680;23.310;2022-11-04T02:11:50;95145.19;;;13.91;59.64
5380;BME280;2713;42.680;23.310;2022-11-04T02:14:34;95131.13;;;13.98;59.95
5380;BME280;2713;42.680;23.310;2022-11-04T02:17:13;95131.50;;;13.82;60.18
5380;BME280;2713;42.680;23.310;2022-11-04T02:19:58;95135.56;;;13.98;60.06
5380;BME280;2713;42.680;23.310;2022-11-04T02:25:31;95131.78;;;14.20;59.04
5380;BME280;2713;42.680;23.310;2022-11-04T02:28:32;95131.38;;;14.23;58.75
5380;BME280;2713;42.680;23.310;2022-11-04T02:31:09;95131.53;;;13.95;59.72
5380;BME280;2713;42.680;23.310;2022-11-04T02:34:10;95127.47;;;13.73;60.30
5380;BME280;2713;42.680;23.310;2022-11-04T02:36:45;95127.91;;;13.83;60.44
5380;BME280;2713;42.680;23.310;2022-11-04T02:39:21;95127.09;;;13.76;60.60
5380;BME280;2713;42.680;23.310;2022-11-04T02:41:56;95126.84;;;13.64;60.88
5380;BME280;2713;42.680;23.310;2022-11-04T02:44:30;95092.91;;;13.17;62.04
5380;BME280;2713;42.680;23.310;2022-11-04T02:47:04;95115.88;;;13.35;61.80
5380;BME280;2713;42.680;23.310;2022-11-04T02:49:36;95125.97;;;13.44;60.96
5380;BME280;2713;42.680;23.310;2022-11-04T02:52:06;95117.31;;;13.44;61.36
5380;BME280;2713;42.680;23.310;2022-11-04T02:54:38;95127.16;;;13.42;60.69
5380;BME280;2713;42.680;23.310;2022-11-04T02:57:10;95114.28;;;13.40;61.74
5380;BME280;2713;42.680;23.310;2022-11-04T02:59:43;95129.50;;;13.30;61.30
5380;BME280;2713;42.680;23.310;2022-11-04T03:02:16;95119.28;;;13.29;61.26
5380;BME280;2713;42.680;23.310;2022-11-04T03:04:47;95118.22;;;13.23;61.85
5380;BME280;2713;42.680;23.310;2022-11-04T03:07:16;95119.44;;;13.20;61.93
5380;BME280;2713;42.680;23.310;2022-11-04T03:09:49;95124.50;;;13.29;61.86
5380;BME280;2713;42.680;23.310;2022-11-04T03:12:22;95123.69;;;13.28;61.80
5380;BME280;2713;42.680;23.310;2022-11-04T03:14:52;95117.25;;;13.24;61.86
5380;BME280;2713;42.680;23.310;2022-11-04T03:17:26;95122.75;;;13.42;61.07
5380;BME280;2713;42.680;23.310;2022-11-04T03:19:58;95122.34;;;13.39;61.63
5380;BME280;2713;42.680;23.310;2022-11-04T03:22:27;95123.28;;;13.31;61.75
5380;BME280;2713;42.680;23.310;2022-11-04T03:24:55;95122.50;;;13.03;62.58
5380;BME280;2713;42.680;23.310;2022-11-04T03:27:25;95120.44;;;13.26;61.95
5380;BME280;2713;42.680;23.310;2022-11-04T03:29:58;95124.56;;;13.42;61.35
5380;BME280;2713;42.680;23.310;2022-11-04T03:32:35;95124.88;;;13.32;61.57
5380;BME280;2713;42.680;23.310;2022-11-04T03:35:05;95121.25;;;13.27;61.74
5380;BME280;2713;42.680;23.310;2022-11-04T03:37:32;95106.56;;;13.19;61.23
5380;BME280;2713;42.680;23.310;2022-11-04T03:39:59;95122.50;;;13.31;61.56
5380;BME280;2713;42.680;23.310;2022-11-04T03:42:27;95124.00;;;13.12;61.94
5380;BME280;2713;42.680;23.310;2022-11-04T03:44:56;95122.47;;;12.96;62.53
5380;BME280;2713;42.680;23.310;2022-11-04T03:47:26;95120.78;;;13.10;62.29
5380;BME280;2713;42.680;23.310;2022-11-04T03:50:00;95114.22;;;12.93;62.58
5380;BME280;2713;42.680;23.310;2022-11-04T03:52:28;95122.28;;;12.63;63.28
5380;BME280;2713;42.680;23.310;2022-11-04T03:54:56;95125.28;;;12.95;62.55
5380;BME280;2713;42.680;23.310;2022-11-04T03:57:33;95115.69;;;13.02;62.20
5380;BME280;2713;42.680;23.310;2022-11-04T04:00:09;95118.78;;;13.12;62.11
5380;BME280;2713;42.680;23.310;2022-11-04T04:05:40;95113.63;;;12.91;62.63
5380;BME280;2713;42.680;23.310;2022-11-04T04:08:14;95102.75;;;12.81;62.72
5380;BME280;2713;42.680;23.310;2022-11-04T04:10:51;95091.31;;;12.54;63.20
5380;BME280;2713;42.680;23.310;2022-11-04T04:13:36;95109.41;;;12.90;62.63
5380;BME280;2713;42.680;23.310;2022-11-04T04:16:10;95095.88;;;12.73;63.10
5380;BME280;2713;42.680;23.310;2022-11-04T04:18:41;95107.59;;;12.90;62.53
5380;BME280;2713;42.680;23.310;2022-11-04T04:21:14;95109.47;;;12.68;63.16
5380;BME280;2713;42.680;23.310;2022-11-04T04:23:43;95112.16;;;12.82;62.74
5380;BME280;2713;42.680;23.310;2022-11-04T04:26:31;95107.63;;;12.97;62.38
5380;BME280;2713;42.680;23.310;2022-11-04T04:29:17;95099.28;;;13.08;61.87
5380;BME280;2713;42.680;23.310;2022-11-04T04:31:47;95104.41;;;12.95;62.46
5380;BME280;2713;42.680;23.310;2022-11-04T04:34:23;95106.47;;;12.71;63.29
5380;BME280;2713;42.680;23.310;2022-11-04T04:36:57;95110.59;;;12.87;62.69
5380;BME280;2713;42.680;23.310;2022-11-04T04:39:34;95110.75;;;12.79;62.96
5380;BME280;2713;42.680;23.310;2022-11-04T04:42:20;95108.59;;;12.61;63.22
5380;BME280;2713;42.680;23.310;2022-11-04T04:45:05;95107.84;;;12.67;63.59
5380;BME280;2713;42.680;23.310;2022-11-04T04:47:38;95108.06;;;12.66;63.47
5380;BME280;2713;42.680;23.310;2022-11-04T04:50:06;95111.84;;;12.63;63.25
5380;BME280;2713;42.680;23.310;2022-11-04T04:52:37;95110.16;;;12.49;63.81
5380;BME280;2713;42.680;23.310;2022-11-04T04:55:06;95108.22;;;12.64;63.58
5380;BME280;2713;42.680;23.310;2022-11-04T04:57:33;95112.22;;;12.60;63.58
5380;BME280;2713;42.680;23.310;2022-11-04T05:00:00;95105.34;;;12.53;63.95
5380;BME280;2713;42.680;23.310;2022-11-04T05:02:28;95114.81;;;12.60;63.12
5380;BME280;2713;42.680;23.310;2022-11-04T05:04:54;95114.59;;;12.55;63.45
5380;BME280;2713;42.680;23.310;2022-11-04T05:07:21;95116.69;;;12.39;64.37
5380;BME280;2713;42.680;23.310;2022-11-04T05:09:50;95118.19;;;12.54;64.13
5380;BME280;2713;42.680;23.310;2022-11-04T05:12:17;95116.47;;;12.68;62.83
5380;BME280;2713;42.680;23.310;2022-11-04T05:14:44;95121.81;;;12.53;64.06
5380;BME280;2713;42.680;23.310;2022-11-04T05:17:11;95115.38;;;12.28;64.69
5380;BME280;2713;42.680;23.310;2022-11-04T05:19:38;95121.03;;;12.59;63.89
5380;BME280;2713;42.680;23.310;2022-11-04T05:22:05;95115.72;;;12.74;63.30
5380;BME280;2713;42.680;23.310;2022-11-04T05:24:32;95118.03;;;12.90;62.85
5380;BME280;2713;42.680;23.310;2022-11-04T05:27:00;95122.44;;;12.90;62.50
5380;BME280;2713;42.680;23.310;2022-11-04T05:29:27;95125.16;;;12.75;63.46
5380;BME280;2713;42.680;23.310;2022-11-04T05:31:54;95134.91;;;12.60;64.07
5380;BME280;2713;42.680;23.310;2022-11-04T05:34:21;95131.28;;;12.61;64.09
5380;BME280;2713;42.680;23.310;2022-11-04T05:36:47;95140.66;;;12.83;63.75
5380;BME280;2713;42.680;23.310;2022-11-04T05:39:14;95140.41;;;12.78;63.76
5380;BME280;2713;42.680;23.310;2022-11-04T05:41:41;95144.47;;;12.81;63.46
5380;BME280;2713;42.680;23.310;2022-11-04T05:44:09;95138.94;;;12.97;63.51
5380;BME280;2713;42.680;23.310;2022-11-04T05:46:37;95144.31;;;12.89;63.70
5380;BME280;2713;42.680;23.310;2022-11-04T05:49:03;95151.31;;;12.88;64.14
5380;BME280;2713;42.680;23.310;2022-11-04T05:51:30;95150.19;;;12.97;63.96
5380;BME280;2713;42.680;23.310;2022-11-04T05:53:57;95153.66;;;13.04;63.81
5380;BME280;2713;42.680;23.310;2022-11-04T05:56:24;95147.88;;;13.09;64.17
5380;BME280;2713;42.680;23.310;2022-11-04T05:58:51;95146.91;;;13.16;63.88
5380;BME280;2713;42.680;23.310;2022-11-04T06:01:29;95154.16;;;13.21;63.67
5380;BME280;2713;42.680;23.310;2022-11-04T06:03:57;95163.38;;;12.89;64.79
5380;BME280;2713;42.680;23.310;2022-11-04T06:06:25;95154.63;;;13.03;64.08
5380;BME280;2713;42.680;23.310;2022-11-04T06:08:52;95152.22;;;13.02;64.38
5380;BME280;2713;42.680;23.310;2022-11-04T06:11:20;95160.19;;;12.94;64.84
5380;BME280;2713;42.680;23.310;2022-11-04T06:13:48;95156.22;;;12.98;65.14
5380;BME280;2713;42.680;23.310;2022-11-04T06:16:15;95146.34;;;13.21;64.46
5380;BME280;2713;42.680;23.310;2022-11-04T06:18:43;95153.16;;;13.22;64.37
5380;BME280;2713;42.680;23.310;2022-11-04T06:21:20;95121.84;;;13.22;64.17
5380;BME280;2713;42.680;23.310;2022-11-04T06:23:50;95150.06;;;13.46;63.91
5380;BME280;2713;42.680;23.310;2022-11-04T06:26:17;95155.94;;;13.55;64.90
5380;BME280;2713;42.680;23.310;2022-11-04T06:28:44;95150.69;;;13.48;65.56
5380;BME280;2713;42.680;23.310;2022-11-04T06:31:12;95150.28;;;13.51;65.59
5380;BME280;2713;42.680;23.310;2022-11-04T06:33:39;95146.47;;;13.47;66.34
5380;BME280;2713;42.680;23.310;2022-11-04T06:36:10;95155.75;;;13.22;66.80
5380;BME280;2713;42.680;23.310;2022-11-04T06:38:38;95161.28;;;13.40;66.81
5380;BME280;2713;42.680;23.310;2022-11-04T06:41:05;95163.19;;;13.59;66.07
5380;BME280;2713;42.680;23.310;2022-11-04T06:43:32;95161.00;;;13.63;66.09
5380;BME280;2713;42.680;23.310;2022-11-04T06:46:00;95162.63;;;13.70;65.63
5380;BME280;2713;42.680;23.310;2022-11-04T06:48:28;95162.63;;;13.77;65.84
5380;BME280;2713;42.680;23.310;2022-11-04T06:50:56;95161.06;;;13.83;66.51
5380;BME280;2713;42.680;23.310;2022-11-04T06:53:25;95147.59;;;13.86;65.86
5380;BME280;2713;42.680;23.310;2022-11-04T06:55:52;95154.66;;;13.98;65.85
5380;BME280;2713;42.680;23.310;2022-11-04T06:58:19;95158.25;;;13.97;65.64
5380;BME280;2713;42.680;23.310;2022-11-04T07:00:50;95155.06;;;14.02;66.33
5380;BME280;2713;42.680;23.310;2022-11-04T07:03:19;95140.66;;;14.39;82.59
5380;BME280;2713;42.680;23.310;2022-11-04T07:05:45;95159.75;;;14.26;66.50
5380;BME280;2713;42.680;23.310;2022-11-04T07:08:12;95163.97;;;14.14;66.31
5380;BME280;2713;42.680;23.310;2022-11-04T07:10:40;95157.31;;;14.18;65.71
5380;BME280;2713;42.680;23.310;2022-11-04T07:13:07;95154.69;;;14.11;65.90
5380;BME280;2713;42.680;23.310;2022-11-04T07:15:37;95148.31;;;14.34;65.08
5380;BME280;2713;42.680;23.310;2022-11-04T07:18:04;95145.44;;;14.29;64.83
5380;BME280;2713;42.680;23.310;2022-11-04T07:20:31;95147.09;;;14.36;64.65
5380;BME280;2713;42.680;23.310;2022-11-04T07:22:58;95148.50;;;14.39;64.99
5380;BME280;2713;42.680;23.310;2022-11-04T07:25:25;95140.84;;;14.17;65.90
5380;BME280;2713;42.680;23.310;2022-11-04T07:27:53;95139.63;;;14.20;66.01
5380;BME280;2713;42.680;23.310;2022-11-04T07:30:19;95125.59;;;14.47;65.01
5380;BME280;2713;42.680;23.310;2022-11-04T07:32:46;95136.66;;;14.82;63.81
5380;BME280;2713;42.680;23.310;2022-11-04T07:35:13;95123.81;;;15.38;62.33
5380;BME280;2713;42.680;23.310;2022-11-04T07:37:40;95133.25;;;15.46;62.17
5380;BME280;2713;42.680;23.310;2022-11-04T07:40:08;95133.63;;;16.00;60.78
5380;BME280;2713;42.680;23.310;2022-11-04T07:42:35;95123.34;;;16.30;59.61
5380;BME280;2713;42.680;23.310;2022-11-04T07:45:08;95116.84;;;16.39;59.23
5380;BME280;2713;42.680;23.310;2022-11-04T07:47:35;95116.97;;;16.76;59.82
5380;BME280;2713;42.680;23.310;2022-11-04T07:50:03;95112.94;;;16.98;57.75
5380;BME280;2713;42.680;23.310;2022-11-04T07:52:31;95111.41;;;17.27;56.98
5380;BME280;2713;42.680;23.310;2022-11-04T07:54:58;95112.06;;;17.04;56.84
5380;BME280;2713;42.680;23.310;2022-11-04T07:57:25;95107.03;;;17.20;56.68
5380;BME280;2713;42.680;23.310;2022-11-04T07:59:52;95118.34;;;17.39;56.08
5380;BME280;2713;42.680;23.310;2022-11-04T08:02:20;95114.53;;;17.71;55.40
5380;BME280;2713;42.680;23.310;2022-11-04T08:04:47;95113.00;;;17.82;54.63
5380;BME280;2713;42.680;23.310;2022-11-04T08:07:15;95108.97;;;18.09;54.47
5380;BME280;2713;42.680;23.310;2022-11-04T08:09:42;95101.97;;;18.03;54.48
5380;BME280;2713;42.680;23.310;2022-11-04T08:12:09;95088.22;;;18.31;53.92
5380;BME280;2713;42.680;23.310;2022-11-04T08:14:36;95096.91;;;18.43;53.24
5380;BME280;2713;42.680;23.310;2022-11-04T08:17:03;95091.31;;;18.28;53.13
5380;BME280;2713;42.680;23.310;2022-11-04T08:19:31;95088.66;;;18.28;53.97
5380;BME280;2713;42.680;23.310;2022-11-04T08:21:58;95082.44;;;18.11;54.00
5380;BME280;2713;42.680;23.310;2022-11-04T08:24:25;95079.41;;;18.37;53.50
5380;BME280;2713;42.680;23.310;2022-11-04T08:26:51;95085.66;;;18.13;53.80
5380;BME280;2713;42.680;23.310;2022-11-04T08:29:18;95075.25;;;18.18;53.66
5380;BME280;2713;42.680;23.310;2022-11-04T08:31:45;95067.41;;;18.41;53.21
5380;BME280;2713;42.680;23.310;2022-11-04T08:34:12;95067.63;;;18.40;52.87
5380;BME280;2713;42.680;23.310;2022-11-04T08:36:44;95063.63;;;18.37;52.92
5380;BME280;2713;42.680;23.310;2022-11-04T08:39:11;95061.75;;;18.26;53.43
5380;BME280;2713;42.680;23.310;2022-11-04T08:41:42;95063.41;;;18.39;53.08
5380;BME280;2713;42.680;23.310;2022-11-04T08:44:11;95063.19;;;17.99;54.09
5380;BME280;2713;42.680;23.310;2022-11-04T08:46:40;95053.88;;;17.85;54.81
5380;BME280;2713;42.680;23.310;2022-11-04T08:49:07;95032.13;;;17.66;54.96
5380;BME280;2713;42.680;23.310;2022-11-04T08:51:36;95052.59;;;17.76;55.09
5380;BME280;2713;42.680;23.310;2022-11-04T08:54:05;95050.59;;;17.41;56.12
5380;BME280;2713;42.680;23.310;2022-11-04T08:56:33;95055.50;;;17.56;55.81
5380;BME280;2713;42.680;23.310;2022-11-04T08:59:01;95033.94;;;17.47;55.49
5380;BME280;2713;42.680;23.310;2022-11-04T09:01:31;95043.16;;;17.38;56.69
5380;BME280;2713;42.680;23.310;2022-11-04T09:03:59;95037.56;;;17.16;57.43
5380;BME280;2713;42.680;23.310;2022-11-04T09:06:27;95032.22;;;17.23;58.01
5380;BME280;2713;42.680;23.310;2022-11-04T09:08:55;95028.47;;;17.19;56.67
5380;BME280;2713;42.680;23.310;2022-11-04T09:11:30;95024.47;;;16.98;57.67
5380;BME280;2713;42.680;23.310;2022-11-04T09:13:58;95021.50;;;17.06;57.40
5380;BME280;2713;42.680;23.310;2022-11-04T09:16:27;95017.78;;;17.14;57.46
5380;BME280;2713;42.680;23.310;2022-11-04T09:18:55;95013.34;;;17.14;57.06
5380;BME280;2713;42.680;23.310;2022-11-04T09:21:22;95010.19;;;17.24;56.19
5380;BME280;2713;42.680;23.310;2022-11-04T09:23:49;95010.94;;;17.13;56.30
5380;BME280;2713;42.680;23.310;2022-11-04T09:26:16;95009.63;;;17.22;55.78
5380;BME280;2713;42.680;23.310;2022-11-04T09:28:45;94999.97;;;17.16;55.65
5380;BME280;2713;42.680;23.310;2022-11-04T09:31:13;95007.56;;;17.24;55.68
5380;BME280;2713;42.680;23.310;2022-11-04T09:33:40;94999.75;;;17.36;55.30
5380;BME280;2713;42.680;23.310;2022-11-04T09:36:08;94993.91;;;17.34;55.51
5380;BME280;2713;42.680;23.310;2022-11-04T09:38:35;94998.59;;;17.43;55.32
5380;BME280;2713;42.680;23.310;2022-11-04T09:41:08;94981.34;;;17.36;55.84
5380;BME280;2713;42.680;23.310;2022-11-04T09:43:47;94980.50;;;17.53;55.61
5380;BME280;2713;42.680;23.310;2022-11-04T09:46:19;94975.66;;;17.50;56.09
5380;BME280;2713;42.680;23.310;2022-11-04T09:48:47;94974.94;;;17.61;62.29
5380;BME280;2713;42.680;23.310;2022-11-04T09:51:17;94968.66;;;17.62;55.40
5380;BME280;2713;42.680;23.310;2022-11-04T09:53:46;94956.09;;;17.64;55.14
5380;BME280;2713;42.680;23.310;2022-11-04T09:56:16;94952.44;;;17.65;55.09
5380;BME280;2713;42.680;23.310;2022-11-04T09:58:47;94950.72;;;17.71;55.15
5380;BME280;2713;42.680;23.310;2022-11-04T10:01:22;94940.34;;;17.76;55.06
5380;BME280;2713;42.680;23.310;2022-11-04T10:04:05;94937.25;;;17.79;54.72
5380;BME280;2713;42.680;23.310;2022-11-04T10:06:40;94933.03;;;17.66;54.83
5380;BME280;2713;42.680;23.310;2022-11-04T10:09:21;94936.19;;;17.57;54.98
5380;BME280;2713;42.680;23.310;2022-11-04T10:12:01;94927.41;;;17.63;54.82
5380;BME280;2713;42.680;23.310;2022-11-04T10:14:49;94920.44;;;17.68;54.61
5380;BME280;2713;42.680;23.310;2022-11-04T10:17:33;94921.13;;;17.76;54.35
5380;BME280;2713;42.680;23.310;2022-11-04T10:20:17;94919.22;;;17.94;53.90
5380;BME280;2713;42.680;23.310;2022-11-04T10:22:54;94916.34;;;17.96;54.20
5380;BME280;2713;42.680;23.310;2022-11-04T10:25:26;94909.13;;;17.91;53.81
5380;BME280;2713;42.680;23.310;2022-11-04T10:27:54;94902.50;;;17.89;54.29
5380;BME280;2713;42.680;23.310;2022-11-04T10:30:24;94901.25;;;18.03;54.27
5380;BME280;2713;42.680;23.310;2022-11-04T10:32:58;94892.69;;;17.96;54.62
5380;BME280;2713;42.680;23.310;2022-11-04T10:35:30;94883.88;;;17.90;54.64
5380;BME280;2713;42.680;23.310;2022-11-04T10:38:15;94875.97;;;18.02;54.64
5380;BME280;2713;42.680;23.310;2022-11-04T10:40:46;94875.44;;;18.00;54.65
5380;BME280;2713;42.680;23.310;2022-11-04T10:43:17;94864.91;;;18.00;54.00
5380;BME280;2713;42.680;23.310;2022-11-04T10:45:56;94849.34;;;18.10;67.16
5380;BME280;2713;42.680;23.310;2022-11-04T10:48:30;94845.16;;;18.49;62.51
5380;BME280;2713;42.680;23.310;2022-11-04T10:51:01;94840.25;;;18.52;56.76
5380;BME280;2713;42.680;23.310;2022-11-04T10:53:30;94838.13;;;19.22;68.07
5380;BME280;2713;42.680;23.310;2022-11-04T10:56:02;94831.38;;;19.15;55.18
5380;BME280;2713;42.680;23.310;2022-11-04T10:58:34;94821.97;;;19.19;60.94
5380;BME280;2713;42.680;23.310;2022-11-04T11:01:22;94822.94;;;19.13;53.56
5380;BME280;2713;42.680;23.310;2022-11-04T11:03:49;94811.94;;;19.33;60.25
5380;BME280;2713;42.680;23.310;2022-11-04T11:06:23;94805.94;;;19.37;56.34
5380;BME280;2713;42.680;23.310;2022-11-04T11:08:51;94799.50;;;19.61;58.75
5380;BME280;2713;42.680;23.310;2022-11-04T11:11:34;94809.78;;;19.80;52.92
5380;BME280;2713;42.680;23.310;2022-11-04T11:14:02;94805.75;;;19.94;54.03
5380;BME280;2713;42.680;23.310;2022-11-04T11:16:30;94802.34;;;19.77;49.69
5380;BME280;2713;42.680;23.310;2022-11-04T11:19:12;94789.25;;;19.82;51.55
5380;BME280;2713;42.680;23.310;2022-11-04T11:21:43;94791.97;;;19.70;47.83
5380;BME280;2713;42.680;23.310;2022-11-04T11:24:14;94778.09;;;19.96;47.38
5380;BME280;2713;42.680;23.310;2022-11-04T11:26:42;94773.69;;;20.02;47.09
5380;BME280;2713;42.680;23.310;2022-11-04T11:29:19;94767.03;;;19.78;47.50
5380;BME280;2713;42.680;23.310;2022-11-04T11:31:49;94762.47;;;19.90;47.59
5380;BME280;2713;42.680;23.310;2022-11-04T11:34:20;94753.88;;;19.99;47.20
5380;BME280;2713;42.680;23.310;2022-11-04T11:36:51;94744.97;;;19.67;47.46
5380;BME280;2713;42.680;23.310;2022-11-04T11:39:20;94738.72;;;19.51;47.53
5380;BME280;2713;42.680;23.310;2022-11-04T11:41:51;94740.81;;;19.71;46.74
5380;BME280;2713;42.680;23.310;2022-11-04T11:44:24;94736.19;;;20.00;46.50
5380;BME280;2713;42.680;23.310;2022-11-04T11:46:56;94729.91;;;19.84;46.88
5380;BME280;2713;42.680;23.310;2022-11-04T11:49:28;94728.31;;;19.61;47.53
5380;BME280;2713;42.680;23.310;2022-11-04T11:52:16;94713.91;;;19.52;47.74
5380;BME280;2713;42.680;23.310;2022-11-04T11:54:51;94715.78;;;19.52;47.92
5380;BME280;2713;42.680;23.310;2022-11-04T11:57:30;94712.34;;;19.18;48.32
5380;BME280;2713;42.680;23.310;2022-11-04T12:00:04;94709.78;;;19.23;48.22
5380;BME280;2713;42.680;23.310;2022-11-04T12:02:45;94712.91;;;19.20;48.00
5380;BME280;2713;42.680;23.310;2022-11-04T12:05:15;94709.00;;;19.22;48.47
5380;BME280;2713;42.680;23.310;2022-11-04T12:07:47;94709.63;;;19.30;48.38
5380;BME280;2713;42.680;23.310;2022-11-04T12:10:26;94699.41;;;19.33;48.21
5380;BME280;2713;42.680;23.310;2022-11-04T12:13:05;94698.06;;;19.14;48.30
5380;BME280;2713;42.680;23.310;2022-11-04T12:15:40;94701.19;;;19.11;48.99
5380;BME280;2713;42.680;23.310;2022-11-04T12:18:34;94695.63;;;19.29;48.56
5380;BME280;2713;42.680;23.310;2022-11-04T12:21:09;94695.50;;;19.19;48.64
5380;BME280;2713;42.680;23.310;2022-11-04T12:23:44;94694.03;;;19.28;47.88
5380;BME280;2713;42.680;23.310;2022-11-04T12:26:22;94693.88;;;19.51;47.88
5380;BME280;2713;42.680;23.310;2022-11-04T12:28:59;94695.47;;;19.52;47.80
5380;BME280;2713;42.680;23.310;2022-11-04T12:31:33;94692.59;;;19.37;47.48
5380;BME280;2713;42.680;23.310;2022-11-04T12:34:10;94689.03;;;19.27;47.95
5380;BME280;2713;42.680;23.310;2022-11-04T12:36:52;94681.50;;;19.35;47.90
5380;BME280;2713;42.680;23.310;2022-11-04T12:39:32;94682.41;;;19.24;48.07
5380;BME280;2713;42.680;23.310;2022-11-04T12:42:14;94678.41;;;19.38;47.85
5380;BME280;2713;42.680;23.310;2022-11-04T12:44:46;94668.88;;;19.37;46.92
5380;BME280;2713;42.680;23.310;2022-11-04T12:47:25;94669.53;;;19.44;46.49
5380;BME280;2713;42.680;23.310;2022-11-04T12:50:13;94663.03;;;19.35;46.75
5380;BME280;2713;42.680;23.310;2022-11-04T12:53:02;94664.59;;;19.31;47.22
5380;BME280;2713;42.680;23.310;2022-11-04T12:55:43;94668.63;;;19.39;47.11
5380;BME280;2713;42.680;23.310;2022-11-04T12:58:26;94670.38;;;19.50;47.22
5380;BME280;2713;42.680;23.310;2022-11-04T13:01:02;94654.41;;;19.56;47.25
5380;BME280;2713;42.680;23.310;2022-11-04T13:03:35;94660.81;;;19.44;47.81
5380;BME280;2713;42.680;23.310;2022-11-04T13:06:12;94657.38;;;19.43;47.82
5380;BME280;2713;42.680;23.310;2022-11-04T13:08:45;94656.06;;;19.24;48.60
5380;BME280;2713;42.680;23.310;2022-11-04T13:11:17;94654.84;;;19.15;48.79
5380;BME280;2713;42.680;23.310;2022-11-04T13:13:56;94660.44;;;19.18;48.70
5380;BME280;2713;42.680;23.310;2022-11-04T13:16:24;94671.88;;;19.07;49.25
5380;BME280;2713;42.680;23.310;2022-11-04T13:18:51;94668.34;;;19.18;49.19
5380;BME280;2713;42.680;23.310;2022-11-04T13:21:22;94667.38;;;19.08;49.06
5380;BME280;2713;42.680;23.310;2022-11-04T13:23:57;94668.19;;;19.08;49.20
5380;BME280;2713;42.680;23.310;2022-11-04T13:26:25;94660.53;;;19.23;49.16
5380;BME280;2713;42.680;23.310;2022-11-04T13:28:56;94664.84;;;19.13;49.79
5380;BME280;2713;42.680;23.310;2022-11-04T13:31:35;94672.13;;;19.06;49.82
5380;BME280;2713;42.680;23.310;2022-11-04T13:34:10;94665.00;;;19.23;49.63
5380;BME280;2713;42.680;23.310;2022-11-04T13:36:44;94657.94;;;19.29;49.21
5380;BME280;2713;42.680;23.310;2022-11-04T13:39:17;94662.41;;;19.28;49.50